CYEG/YEG METAR and TAF weather

Enter ICAO airport designator
Station Type Date Time Source
CYEG METAR 2020/01/23 18:00 UTC NOAA

CYEG 231800Z 16010KT 20SM FEW150 BKN250 M04/M10 A2976 RMK AC2CI5 SLP127


Station Type Date Time Source
CYEG Decoded METAR 2020/01/23 18:00 UTC NOAA

Edmonton International, Alta., Canada (CYEG) 53-18N 113-35W 723M
Jan 23, 2020 - 01:00 PM EST / 2020.01.23 1800 UTC
Wind: from the SSE (160 degrees) at 12 MPH (10 KT):0
Visibility: 20 mile(s):0
Sky conditions: mostly cloudy
Temperature: 24 F (-4 C)
Windchill: 12 F (-11 C):1
Dew Point: 14 F (-10 C)
Relative Humidity: 62%
Pressure (altimeter): 29.76 in. Hg (1007 hPa)
ob: CYEG 231800Z 16010KT 20SM FEW150 BKN250 M04/M10 A2976 RMK AC2CI5 SLP127
cycle: 18

Station Type Date Time Source
CYEG TAF 2020/01/23 18:42 UTC NOAA

TAF TAF CYEG 231738Z 2318/2418 17015KT P6SM SCT150 BKN230
TEMPO 2318/2324 P6SM VCSH BKN070
FM240000 15010KT P6SM SCT140 BKN250
FM240600 22005KT P6SM FEW100
BECMG 2410/2412 15006KT
FM241600 15006KT P6SM BKN100
RMK NXT FCST BY 232100Z

Example: see airport list